Time;durP1;ratioP1;P1;durP2;ratioP2;P2;SDS_P1;SDS_P2;PMS_P1;PMS_P2;Temp;Humidity;BMP_temperature;BMP_pressure;BME280_temperature;BME280_humidity;BME280_pressure;Samples;Min_cycle;Max_cycle;Signal;HPM_P1;HPM_P2
2023/07/14 00:04:38;;;;;;;;;;;;;;;18.54;100.00;95987.47;10481819;28;1971;-69
2023/07/14 00:09:42;;;;;;;;;;;;;;;18.68;100.00;95974.53;10476779;28;1902;-69
2023/07/14 00:14:44;;;;;;;;;;;;;;;18.73;100.00;95977.09;10482105;28;1904;-68
2023/07/14 00:19:47;;;;;;;;;;;;;;;18.54;100.00;95977.38;10476287;28;1979;-68
2023/07/14 00:24:49;;;;;;;;;;;;;;;18.43;100.00;95991.59;10479287;28;1890;-69
2023/07/14 00:29:52;;;;;;;;;;;;;;;18.18;100.00;95980.34;10463562;28;2190;-69
2023/07/14 00:34:55;;;;;;;;;;;;;;;18.13;100.00;95980.50;10478867;28;1954;-69
2023/07/14 00:39:57;;;;;;;;;;;;;;;18.00;100.00;95978.69;10473544;28;4616;-68
2023/07/14 00:45:00;;;;;;;;;;;;;;;17.87;100.00;95980.41;10480924;28;2294;-69
2023/07/14 00:50:02;;;;;;;;;;;;;;;17.97;100.00;95979.34;10475911;28;2041;-69
2023/07/14 00:55:05;;;;;;;;;;;;;;;17.88;100.00;95981.22;10472989;28;1964;-69
2023/07/14 01:00:08;;;;;;;;;;;;;;;17.68;100.00;95967.03;10473903;28;1997;-68
2023/07/14 01:05:11;;;;;;;;;;;;;;;17.63;100.00;95967.22;10475948;28;2177;-68
2023/07/14 01:10:14;;;;;;;;;;;;;;;17.69;100.00;95973.31;10475860;28;1993;-68
2023/07/14 01:15:16;;;;;;;;;;;;;;;17.70;100.00;95975.72;10469442;28;2216;-68
2023/07/14 01:20:20;;;;;;;;;;;;;;;17.68;100.00;95955.38;10471851;28;1969;-68
2023/07/14 01:25:23;;;;;;;;;;;;;;;17.71;100.00;95965.63;10468000;28;2047;-69
2023/07/14 01:30:25;;;;;;;;;;;;;;;17.78;100.00;95966.81;10466089;28;1973;-68
2023/07/14 01:35:28;;;;;;;;;;;;;;;17.76;100.00;95958.19;10471632;28;1940;-68
2023/07/14 01:40:31;;;;;;;;;;;;;;;17.74;100.00;95957.66;10472517;28;4588;-69
2023/07/14 01:45:33;;;;;;;;;;;;;;;17.88;100.00;95954.03;10460747;28;2140;-70
2023/07/14 01:50:36;;;;;;;;;;;;;;;17.81;100.00;95949.06;10470209;28;1981;-68
2023/07/14 01:55:39;;;;;;;;;;;;;;;17.83;100.00;95947.63;10477515;28;2047;-69
2023/07/14 02:00:43;;;;;;;;;;;;;;;17.75;100.00;95948.41;10448335;28;1996;-69
2023/07/14 02:05:46;;;;;;;;;;;;;;;17.68;100.00;95950.72;10465280;28;1916;-70
2023/07/14 02:10:49;;;;;;;;;;;;;;;17.75;100.00;95953.03;10464623;28;2008;-72
2023/07/14 02:15:52;;;;;;;;;;;;;;;17.52;100.00;95949.56;10465591;28;1938;-73
2023/07/14 02:20:55;;;;;;;;;;;;;;;17.52;100.00;95957.72;10470884;28;2018;-70
2023/07/14 02:25:58;;;;;;;;;;;;;;;17.54;100.00;95950.03;10469774;28;1941;-69
2023/07/14 02:31:00;;;;;;;;;;;;;;;17.58;100.00;95951.03;10463785;28;1961;-69
2023/07/14 02:36:04;;;;;;;;;;;;;;;17.67;100.00;95946.41;10462597;28;1941;-68
2023/07/14 02:41:07;;;;;;;;;;;;;;;17.49;100.00;95944.75;10459734;28;4569;-68
2023/07/14 02:46:09;;;;;;;;;;;;;;;17.50;100.00;95940.94;10468474;28;2408;-68
2023/07/14 02:51:12;;;;;;;;;;;;;;;17.47;100.00;95950.50;10464011;28;1965;-68
2023/07/14 02:56:15;;;;;;;;;;;;;;;17.23;100.00;95950.84;10463555;28;2173;-68
2023/07/14 03:01:17;;;;;;;;;;;;;;;17.09;100.00;95949.34;10464605;28;1969;-69
2023/07/14 03:06:20;;;;;;;;;;;;;;;17.03;100.00;95943.22;10471286;28;1953;-70
2023/07/14 03:11:23;;;;;;;;;;;;;;;17.09;100.00;95943.91;10480378;28;1910;-70
2023/07/14 03:16:25;;;;;;;;;;;;;;;17.04;100.00;95944.84;10472957;28;1945;-69
2023/07/14 03:21:28;;;;;;;;;;;;;;;17.10;100.00;95940.88;10467538;28;1984;-70
2023/07/14 03:26:31;;;;;;;;;;;;;;;16.98;100.00;95943.34;10467311;28;2053;-68
2023/07/14 03:31:33;;;;;;;;;;;;;;;17.01;100.00;95942.75;10467888;28;6780;-72
2023/07/14 03:36:37;;;;;;;;;;;;;;;16.99;100.00;95939.56;10469303;28;5781;-69
2023/07/14 03:41:40;;;;;;;;;;;;;;;16.88;100.00;95943.63;10477210;28;5490;-68
2023/07/14 03:46:42;;;;;;;;;;;;;;;17.01;100.00;95948.19;10471525;28;2441;-73
2023/07/14 03:51:45;;;;;;;;;;;;;;;17.02;100.00;95936.19;10469057;28;5425;-70
2023/07/14 03:56:48;;;;;;;;;;;;;;;17.26;100.00;95936.66;10473230;28;1960;-68
2023/07/14 04:01:50;;;;;;;;;;;;;;;17.48;100.00;95938.50;10474063;28;2001;-70
2023/07/14 04:06:53;;;;;;;;;;;;;;;17.65;100.00;95926.13;10469852;28;5450;-68
2023/07/14 04:11:55;;;;;;;;;;;;;;;17.99;100.00;95923.50;10478335;28;1985;-69
2023/07/14 04:16:57;;;;;;;;;;;;;;;18.23;100.00;95923.06;10475667;28;1968;-68
2023/07/14 04:22:00;;;;;;;;;;;;;;;18.34;100.00;95908.03;10474525;28;1981;-68
2023/07/14 04:27:03;;;;;;;;;;;;;;;18.51;100.00;95909.16;10459859;28;2072;-68
2023/07/14 04:32:05;;;;;;;;;;;;;;;18.46;100.00;95909.31;10475413;28;2003;-69
2023/07/14 04:37:09;;;;;;;;;;;;;;;18.53;100.00;95905.00;10473286;28;2042;-70
2023/07/14 04:42:12;;;;;;;;;;;;;;;18.76;100.00;95897.47;10469167;28;6531;-70
2023/07/14 04:47:14;;;;;;;;;;;;;;;19.07;100.00;95891.00;10477195;28;1894;-69
2023/07/14 04:52:17;;;;;;;;;;;;;;;19.08;100.00;95885.22;10473381;28;2041;-70
2023/07/14 04:57:19;;;;;;;;;;;;;;;19.27;100.00;95884.84;10476699;28;1993;-69
2023/07/14 05:02:22;;;;;;;;;;;;;;;19.56;100.00;95881.38;10474109;28;2053;-69
2023/07/14 05:07:25;;;;;;;;;;;;;;;19.60;100.00;95873.38;10470438;28;1948;-69
2023/07/14 05:12:27;;;;;;;;;;;;;;;19.90;100.00;95880.38;10470650;28;1941;-69
2023/07/14 05:17:30;;;;;;;;;;;;;;;19.92;100.00;95878.16;10470696;28;1967;-72
2023/07/14 05:22:32;;;;;;;;;;;;;;;20.27;100.00;95871.66;10471991;28;2022;-68
2023/07/14 05:27:35;;;;;;;;;;;;;;;20.20;100.00;95861.25;10463858;28;1969;-69
2023/07/14 05:32:38;;;;;;;;;;;;;;;20.34;100.00;95861.78;10470494;28;1977;-69
2023/07/14 05:37:41;;;;;;;;;;;;;;;20.48;100.00;95856.88;10469307;28;3162;-69
2023/07/14 05:42:43;;;;;;;;;;;;;;;21.07;100.00;95855.81;10472703;28;5142;-69
2023/07/14 05:47:45;;;;;;;;;;;;;;;21.18;100.00;95850.69;10470711;28;2480;-68
2023/07/14 05:52:48;;;;;;;;;;;;;;;21.45;100.00;95839.16;10471085;28;1977;-70
2023/07/14 05:57:50;;;;;;;;;;;;;;;21.61;100.00;95841.19;10469073;28;2010;-68
2023/07/14 06:02:54;;;;;;;;;;;;;;;21.84;100.00;95850.53;10475213;28;1996;-69
2023/07/14 06:07:56;;;;;;;;;;;;;;;21.77;100.00;95844.84;10471089;28;2152;-70
2023/07/14 06:12:59;;;;;;;;;;;;;;;22.18;100.00;95845.72;10472881;28;1909;-71
2023/07/14 06:23:34;;;;;;;;;;;;;;;22.59;100.00;95847.28;10464134;28;2160;-73
2023/07/14 06:28:37;;;;;;;;;;;;;;;22.71;100.00;95843.69;10463019;28;2089;-71
2023/07/14 06:33:39;;;;;;;;;;;;;;;22.77;100.00;95832.13;10467586;28;2536;-72
2023/07/14 06:38:49;;;;;;;;;;;;;;;22.78;100.00;95827.47;10474455;28;1973;-70
2023/07/14 06:43:52;;;;;;;;;;;;;;;22.89;100.00;95823.88;10463645;28;5198;-72
2023/07/14 06:48:55;;;;;;;;;;;;;;;23.07;100.00;95813.38;10469175;28;2472;-73
2023/07/14 06:54:17;;;;;;;;;;;;;;;22.84;100.00;95813.16;10463107;28;1975;-71
2023/07/14 06:59:19;;;;;;;;;;;;;;;22.48;100.00;95816.84;10465449;28;1980;-70
2023/07/14 07:04:22;;;;;;;;;;;;;;;21.99;100.00;95816.19;10466047;28;1913;-71
2023/07/14 07:09:24;;;;;;;;;;;;;;;22.31;100.00;95806.19;10468904;28;2119;-80
2023/07/14 07:14:26;;;;;;;;;;;;;;;22.70;100.00;95803.72;10472981;28;2180;-78
2023/07/14 07:19:29;;;;;;;;;;;;;;;23.16;100.00;95811.25;10470473;28;2004;-78
2023/07/14 07:24:32;;;;;;;;;;;;;;;23.51;100.00;95799.56;10465198;28;1975;-79
2023/07/14 07:29:34;;;;;;;;;;;;;;;23.86;100.00;95804.31;10455626;28;2634;-79
2023/07/14 07:34:37;;;;;;;;;;;;;;;23.26;100.00;95806.38;10469411;28;2047;-73
2023/07/14 07:39:39;;;;;;;;;;;;;;;23.00;100.00;95793.22;10471184;28;5126;-76
2023/07/14 07:44:42;;;;;;;;;;;;;;;23.23;100.00;95796.16;10466013;28;2460;-78
2023/07/14 07:49:44;;;;;;;;;;;;;;;23.20;100.00;95784.72;10476228;28;1948;-79
2023/07/14 07:54:47;;;;;;;;;;;;;;;24.02;100.00;95782.31;10472334;28;2017;-79
2023/07/14 07:59:49;;;;;;;;;;;;;;;23.85;100.00;95780.75;10468530;28;1942;-79
2023/07/14 08:04:52;;;;;;;;;;;;;;;23.11;100.00;95788.78;10478602;28;1862;-75
2023/07/14 08:09:54;;;;;;;;;;;;;;;24.37;100.00;95769.34;10474877;28;1905;-77
2023/07/14 08:14:57;;;;;;;;;;;;;;;24.34;100.00;95761.00;10469453;28;1980;-78
2023/07/14 08:20:00;;;;;;;;;;;;;;;24.17;100.00;95757.50;10478942;28;2012;-75
2023/07/14 08:25:03;;;;;;;;;;;;;;;24.86;100.00;95743.13;10474874;28;3258;-76
2023/07/14 08:30:08;;;;;;;;;;;;;;;24.20;100.00;95754.06;10476992;28;2176;-75
2023/07/14 08:35:10;;;;;;;;;;;;;;;24.02;100.00;95741.91;10456853;28;1905;-80
2023/07/14 08:40:13;;;;;;;;;;;;;;;23.82;100.00;95743.06;10471121;28;5094;-77
2023/07/14 08:45:16;;;;;;;;;;;;;;;24.27;100.00;95743.19;10470175;28;2469;-75
2023/07/14 08:50:18;;;;;;;;;;;;;;;24.60;100.00;95733.66;10469907;28;1918;-77
2023/07/14 08:55:20;;;;;;;;;;;;;;;25.06;100.00;95731.72;10456645;28;2176;-76
2023/07/14 09:00:23;;;;;;;;;;;;;;;25.47;100.00;95720.19;10466464;28;1945;-77
2023/07/14 09:05:25;;;;;;;;;;;;;;;25.16;100.00;95724.81;10474042;28;1981;-75
2023/07/14 09:10:28;;;;;;;;;;;;;;;26.05;95.32;95719.81;10475365;28;2076;-78
2023/07/14 09:15:34;;;;;;;;;;;;;;;26.21;89.18;95714.91;10467657;28;2013;-77
2023/07/14 09:20:36;;;;;;;;;;;;;;;26.28;85.42;95720.50;10468147;28;2010;-77
2023/07/14 09:25:39;;;;;;;;;;;;;;;25.93;81.90;95717.31;10455304;28;1934;-75
2023/07/14 09:30:41;;;;;;;;;;;;;;;26.04;82.94;95701.72;10472895;28;1898;-79
2023/07/14 09:35:45;;;;;;;;;;;;;;;26.35;85.50;95709.56;10475678;28;1928;-76
2023/07/14 09:40:47;;;;;;;;;;;;;;;26.78;82.44;95704.50;10464938;28;4991;-76
2023/07/14 09:45:49;;;;;;;;;;;;;;;27.15;82.44;95696.19;10463488;28;2544;-77
2023/07/14 09:50:52;;;;;;;;;;;;;;;26.80;76.75;95696.66;10461579;28;2544;-76
2023/07/14 09:55:55;;;;;;;;;;;;;;;26.90;74.38;95689.63;10466973;28;2040;-76
2023/07/14 10:00:57;;;;;;;;;;;;;;;26.23;73.52;95693.28;10465050;28;1974;-80
2023/07/14 10:05:59;;;;;;;;;;;;;;;26.21;69.68;95692.06;10463917;28;2120;-79
2023/07/14 10:11:02;;;;;;;;;;;;;;;26.32;73.90;95685.50;10461526;28;1919;-79
2023/07/14 10:16:04;;;;;;;;;;;;;;;26.68;59.71;95666.59;10459639;28;1938;-80
2023/07/14 10:21:11;;;;;;;;;;;;;;;27.40;65.57;95663.22;10458805;28;2305;-79
2023/07/14 10:26:14;;;;;;;;;;;;;;;26.40;66.28;95664.34;10465158;28;1914;-77
2023/07/14 10:31:17;;;;;;;;;;;;;;;26.65;58.77;95648.03;10457307;28;1957;-76
2023/07/14 10:36:19;;;;;;;;;;;;;;;26.44;62.93;95651.41;10463553;28;1917;-76
2023/07/14 10:41:22;;;;;;;;;;;;;;;26.48;63.69;95634.91;10463495;28;1974;-75
2023/07/14 10:46:25;;;;;;;;;;;;;;;26.66;63.89;95630.38;10457894;28;2353;-73
2023/07/14 10:51:28;;;;;;;;;;;;;;;27.71;64.85;95630.69;10459686;28;1946;-74
2023/07/14 10:56:30;;;;;;;;;;;;;;;28.19;54.94;95616.66;10458453;28;1988;-74
2023/07/14 11:01:33;;;;;;;;;;;;;;;28.77;57.24;95610.84;10458585;28;1906;-75
2023/07/14 11:06:36;;;;;;;;;;;;;;;29.36;55.04;95602.09;10450427;28;2220;-77
2023/07/14 11:11:39;;;;;;;;;;;;;;;29.59;53.19;95585.84;10441613;28;1976;-75
2023/07/14 11:16:42;;;;;;;;;;;;;;;29.59;51.72;95583.06;10463109;28;2044;-75
2023/07/14 11:21:45;;;;;;;;;;;;;;;28.96;49.42;95573.72;10467787;28;2040;-76
2023/07/14 11:26:47;;;;;;;;;;;;;;;29.10;51.70;95572.88;10458693;28;2028;-76
2023/07/14 11:31:50;;;;;;;;;;;;;;;29.57;50.33;95574.34;10453056;28;2011;-76
2023/07/14 11:36:52;;;;;;;;;;;;;;;29.50;48.21;95573.56;10462477;28;1996;-73
2023/07/14 11:41:55;;;;;;;;;;;;;;;29.39;48.29;95567.25;10463297;28;5097;-78
2023/07/14 11:46:58;;;;;;;;;;;;;;;29.06;48.26;95550.75;10458868;28;2461;-79
2023/07/14 11:52:01;;;;;;;;;;;;;;;28.96;52.49;95550.78;10462412;28;1992;-77
2023/07/14 11:57:04;;;;;;;;;;;;;;;28.97;50.71;95547.63;10473973;28;2000;-77
2023/07/14 12:02:07;;;;;;;;;;;;;;;29.07;57.29;95541.28;10456562;28;1993;-76
2023/07/14 12:07:10;;;;;;;;;;;;;;;29.39;50.53;95529.28;10469280;28;1925;-78
2023/07/14 12:12:13;;;;;;;;;;;;;;;29.47;49.08;95538.38;10472508;28;1892;-78
2023/07/14 12:17:15;;;;;;;;;;;;;;;29.87;48.94;95531.47;10472348;28;2120;-77
2023/07/14 12:22:18;;;;;;;;;;;;;;;29.75;48.17;95529.97;10464478;28;2192;-77
2023/07/14 12:27:21;;;;;;;;;;;;;;;29.89;48.48;95518.78;10471299;28;1947;-77
2023/07/14 12:32:26;;;;;;;;;;;;;;;29.76;47.68;95514.91;10455976;28;2332;-76
2023/07/14 12:37:29;;;;;;;;;;;;;;;30.29;47.80;95508.28;10467790;28;2251;-76
2023/07/14 12:42:35;;;;;;;;;;;;;;;31.13;44.12;95498.81;10467700;28;5093;-78
2023/07/14 12:47:38;;;;;;;;;;;;;;;31.38;44.67;95498.53;10468110;28;2036;-77
2023/07/14 12:52:44;;;;;;;;;;;;;;;30.85;44.25;95489.56;10442055;28;1924;-77
2023/07/14 12:57:47;;;;;;;;;;;;;;;31.06;45.18;95488.56;10477454;28;1953;-77
2023/07/14 13:02:51;;;;;;;;;;;;;;;30.95;43.78;95479.56;10457069;28;2001;-77
2023/07/14 13:07:54;;;;;;;;;;;;;;;31.41;41.24;95484.59;10446674;28;2228;-78
2023/07/14 13:12:57;;;;;;;;;;;;;;;30.69;43.75;95478.25;10464880;28;2070;-77
2023/07/14 13:17:59;;;;;;;;;;;;;;;30.35;43.63;95469.81;10464691;28;1990;-78
2023/07/14 13:23:02;;;;;;;;;;;;;;;30.09;44.26;95460.88;10468277;28;2016;-77
2023/07/14 13:28:06;;;;;;;;;;;;;;;30.81;41.91;95458.31;10457607;28;2074;-77
2023/07/14 13:33:08;;;;;;;;;;;;;;;30.79;43.30;95457.13;10456344;28;1990;-77
2023/07/14 13:38:11;;;;;;;;;;;;;;;30.55;43.59;95451.41;10446402;28;1990;-77
2023/07/14 13:43:14;;;;;;;;;;;;;;;30.07;45.19;95446.63;10468345;28;5157;-78
2023/07/14 13:48:16;;;;;;;;;;;;;;;30.21;43.21;95458.81;10429233;28;2451;-77
2023/07/14 13:53:19;;;;;;;;;;;;;;;29.95;43.76;95452.66;10458653;28;2026;-76
2023/07/14 13:58:22;;;;;;;;;;;;;;;29.14;44.18;95451.91;10469037;28;1989;-76
2023/07/14 14:03:24;;;;;;;;;;;;;;;29.16;45.05;95449.53;10462452;28;2449;-82
2023/07/14 14:08:29;;;;;;;;;;;;;;;28.78;47.62;95442.91;10466930;28;2149;-79
2023/07/14 14:13:32;;;;;;;;;;;;;;;28.77;48.86;95436.56;10472943;28;2005;-79
2023/07/14 14:18:35;;;;;;;;;;;;;;;29.14;50.64;95432.53;10474087;28;2071;-81
2023/07/14 14:23:38;;;;;;;;;;;;;;;28.05;52.50;95432.28;10470029;28;1953;-79
2023/07/14 14:28:41;;;;;;;;;;;;;;;28.09;53.17;95426.78;10473151;28;1945;-79
2023/07/14 14:33:44;;;;;;;;;;;;;;;28.13;54.07;95433.09;10472934;28;2029;-80
2023/07/14 14:38:49;;;;;;;;;;;;;;;27.83;55.06;95427.94;10466850;28;1917;-80
2023/07/14 14:43:54;;;;;;;;;;;;;;;27.78;54.73;95423.59;10473442;28;1981;-80
2023/07/14 14:48:58;;;;;;;;;;;;;;;27.90;56.80;95425.19;10472062;28;2469;-81
2023/07/14 14:54:06;;;;;;;;;;;;;;;27.60;58.24;95400.66;10457944;28;1976;-81
2023/07/14 14:59:09;;;;;;;;;;;;;;;27.95;58.52;95391.66;10470005;28;2307;-80
2023/07/14 15:04:12;;;;;;;;;;;;;;;28.17;57.61;95386.88;10466512;28;1926;-79
2023/07/14 15:09:15;;;;;;;;;;;;;;;28.11;57.51;95385.72;10464085;28;1965;-77
2023/07/14 15:14:18;;;;;;;;;;;;;;;28.25;57.88;95377.44;10452401;28;2244;-74
2023/07/14 15:19:21;;;;;;;;;;;;;;;28.22;56.95;95369.91;10471072;28;2048;-74
2023/07/14 15:24:25;;;;;;;;;;;;;;;28.39;55.93;95355.31;10465471;28;1985;-75
2023/07/14 15:29:29;;;;;;;;;;;;;;;28.72;53.96;95351.25;10446347;28;2359;-77
2023/07/14 15:34:31;;;;;;;;;;;;;;;28.64;55.30;95354.44;10460663;28;2323;-77
2023/07/14 15:39:35;;;;;;;;;;;;;;;28.80;55.06;95349.22;10468878;28;1851;-76
2023/07/14 15:44:37;;;;;;;;;;;;;;;28.40;56.20;95342.28;10470590;28;5743;-75
2023/07/14 15:49:40;;;;;;;;;;;;;;;28.07;57.30;95338.75;10473593;28;1902;-74
2023/07/14 15:54:43;;;;;;;;;;;;;;;28.15;56.47;95334.78;10478215;28;2227;-76
2023/07/14 15:59:46;;;;;;;;;;;;;;;28.14;57.69;95324.94;10468374;28;2102;-77
2023/07/14 16:04:50;;;;;;;;;;;;;;;28.27;58.96;95314.25;10467116;28;2070;-75
2023/07/14 16:09:52;;;;;;;;;;;;;;;28.32;59.23;95308.34;10471142;28;1911;-73
2023/07/14 16:14:55;;;;;;;;;;;;;;;27.77;59.82;95311.56;10470001;28;1945;-74
2023/07/14 16:19:58;;;;;;;;;;;;;;;27.62;61.33;95321.81;10473301;28;1957;-75
2023/07/14 16:25:04;;;;;;;;;;;;;;;27.48;62.43;95313.50;10472322;28;1968;-72
2023/07/14 16:30:11;;;;;;;;;;;;;;;27.67;60.77;95301.25;10449950;28;2304;-74
2023/07/14 16:35:16;;;;;;;;;;;;;;;27.60;62.65;95299.28;10469221;28;1942;-74
2023/07/14 16:40:21;;;;;;;;;;;;;;;27.46;62.42;95296.53;10468961;28;5062;-73
2023/07/14 16:45:23;;;;;;;;;;;;;;;27.39;62.54;95291.03;10472263;28;2537;-72
2023/07/14 16:50:26;;;;;;;;;;;;;;;27.26;64.05;95289.84;10442773;28;2142;-74
2023/07/14 16:55:30;;;;;;;;;;;;;;;27.30;63.48;95291.44;10454115;28;2433;-74
2023/07/14 17:00:34;;;;;;;;;;;;;;;27.44;63.37;95288.66;10466595;28;2104;-74
2023/07/14 17:05:38;;;;;;;;;;;;;;;27.43;64.38;95291.81;10468284;28;2017;-74
2023/07/14 17:10:41;;;;;;;;;;;;;;;27.44;64.41;95296.94;10467153;28;1993;-74
2023/07/14 17:15:44;;;;;;;;;;;;;;;27.41;64.20;95299.69;10469899;28;1902;-75
2023/07/14 17:20:47;;;;;;;;;;;;;;;27.10;65.02;95301.22;10470481;28;1966;-73
2023/07/14 17:25:50;;;;;;;;;;;;;;;27.04;66.87;95298.06;10460631;28;1933;-74
2023/07/14 17:30:55;;;;;;;;;;;;;;;26.94;65.68;95293.31;10464639;28;1981;-73
2023/07/14 17:35:58;;;;;;;;;;;;;;;26.90;67.74;95298.78;10471123;28;1937;-75
2023/07/14 17:41:05;;;;;;;;;;;;;;;26.83;68.04;95293.25;10448595;28;5043;-74
2023/07/14 17:46:10;;;;;;;;;;;;;;;26.67;69.90;95295.59;10460896;28;2370;-74
2023/07/14 17:51:14;;;;;;;;;;;;;;;26.52;70.55;95294.75;10459423;28;2211;-74
2023/07/14 17:56:16;;;;;;;;;;;;;;;26.42;71.14;95297.47;10467515;28;2181;-74
2023/07/14 18:01:19;;;;;;;;;;;;;;;26.36;72.37;95303.31;10462878;28;1971;-74
2023/07/14 18:06:22;;;;;;;;;;;;;;;26.23;74.85;95304.81;10441552;28;1890;-72
2023/07/14 18:11:26;;;;;;;;;;;;;;;26.06;76.38;95308.25;10460041;28;1909;-74
2023/07/14 18:16:29;;;;;;;;;;;;;;;25.86;78.27;95311.28;10464373;28;1997;-73
2023/07/14 18:21:32;;;;;;;;;;;;;;;25.84;79.66;95310.09;10459477;28;2081;-73
2023/07/14 18:26:35;;;;;;;;;;;;;;;25.73;81.44;95301.75;10458457;28;1913;-73
2023/07/14 18:31:38;;;;;;;;;;;;;;;25.59;82.93;95304.38;10462124;28;2040;-73
2023/07/14 18:36:43;;;;;;;;;;;;;;;25.57;83.28;95306.72;10460384;28;2144;-73
2023/07/14 18:41:47;;;;;;;;;;;;;;;25.43;84.99;95301.09;10462895;28;1973;-74
2023/07/14 18:46:49;;;;;;;;;;;;;;;25.22;86.97;95305.25;10459720;28;2438;-74
2023/07/14 18:51:52;;;;;;;;;;;;;;;25.13;87.42;95302.03;10462343;28;2234;-73
2023/07/14 18:56:59;;;;;;;;;;;;;;;24.97;88.96;95302.22;10461126;28;2069;-73
2023/07/14 19:02:03;;;;;;;;;;;;;;;24.73;91.19;95313.75;10468373;28;2316;-72
2023/07/14 19:07:08;;;;;;;;;;;;;;;24.60;92.31;95306.91;10462957;28;1962;-73
2023/07/14 19:12:11;;;;;;;;;;;;;;;24.41;93.73;95311.41;10472267;28;1957;-73
2023/07/14 19:17:14;;;;;;;;;;;;;;;24.30;95.17;95307.69;10468319;28;2002;-73
2023/07/14 19:22:17;;;;;;;;;;;;;;;24.10;96.64;95315.28;10469129;28;2247;-74
2023/07/14 19:27:21;;;;;;;;;;;;;;;23.96;97.70;95323.31;10472837;28;2035;-73
2023/07/14 19:32:24;;;;;;;;;;;;;;;23.69;99.61;95322.53;10465979;28;1895;-73
2023/07/14 19:37:30;;;;;;;;;;;;;;;23.58;100.00;95338.78;10460476;28;1961;-74
2023/07/14 19:42:33;;;;;;;;;;;;;;;23.37;100.00;95346.69;10467184;28;4938;-74
2023/07/14 19:47:36;;;;;;;;;;;;;;;23.19;100.00;95347.16;10467686;28;2532;-73
2023/07/14 19:52:39;;;;;;;;;;;;;;;23.09;100.00;95350.47;10470290;28;1878;-74
2023/07/14 19:57:43;;;;;;;;;;;;;;;23.04;100.00;95345.31;10483598;28;1843;-73
2023/07/14 20:02:47;;;;;;;;;;;;;;;22.93;100.00;95353.34;10473772;28;2029;-73
2023/07/14 20:07:52;;;;;;;;;;;;;;;22.90;100.00;95348.59;10472602;28;2010;-73
2023/07/14 20:12:55;;;;;;;;;;;;;;;22.76;100.00;95347.47;10467574;28;1957;-74
2023/07/14 20:17:58;;;;;;;;;;;;;;;22.65;100.00;95348.06;10463805;28;1949;-73
2023/07/14 20:23:01;;;;;;;;;;;;;;;22.69;100.00;95347.34;10468651;28;1910;-73
2023/07/14 20:28:05;;;;;;;;;;;;;;;22.60;100.00;95348.34;10452080;28;1952;-74
2023/07/14 20:33:08;;;;;;;;;;;;;;;22.44;100.00;95355.84;10449190;28;2157;-74
2023/07/14 20:38:11;;;;;;;;;;;;;;;22.35;100.00;95347.84;10465865;28;2302;-73
2023/07/14 20:43:14;;;;;;;;;;;;;;;22.27;100.00;95353.53;10446544;28;5281;-74
2023/07/14 20:48:17;;;;;;;;;;;;;;;22.29;100.00;95351.22;10463932;28;2444;-73
2023/07/14 20:53:20;;;;;;;;;;;;;;;22.24;100.00;95348.75;10467351;28;2040;-72
2023/07/14 20:58:24;;;;;;;;;;;;;;;22.15;100.00;95350.94;10468520;28;1848;-72
2023/07/14 21:03:27;;;;;;;;;;;;;;;22.17;100.00;95354.09;10471956;28;1989;-74
2023/07/14 21:08:30;;;;;;;;;;;;;;;21.98;100.00;95358.34;10470210;28;2095;-74
2023/07/14 21:13:34;;;;;;;;;;;;;;;21.80;100.00;95354.41;10467206;28;1848;-74
2023/07/14 21:18:39;;;;;;;;;;;;;;;21.71;100.00;95362.00;10444057;28;1984;-74
2023/07/14 21:23:42;;;;;;;;;;;;;;;21.75;100.00;95360.13;10433465;28;1985;-73
2023/07/14 21:28:46;;;;;;;;;;;;;;;21.73;100.00;95365.19;10458545;28;1876;-74
2023/07/14 21:33:49;;;;;;;;;;;;;;;21.82;100.00;95371.25;10463960;28;2278;-73
2023/07/14 21:38:52;;;;;;;;;;;;;;;21.78;100.00;95370.38;10469027;28;2117;-74
2023/07/14 21:43:55;;;;;;;;;;;;;;;21.65;100.00;95368.91;10463550;28;5133;-73
2023/07/14 21:49:01;;;;;;;;;;;;;;;21.57;100.00;95374.19;10465405;28;2425;-76
2023/07/14 21:54:05;;;;;;;;;;;;;;;21.44;100.00;95369.16;10460000;28;1856;-78
2023/07/14 21:59:08;;;;;;;;;;;;;;;21.34;100.00;95373.22;10449179;28;1907;-79
2023/07/14 22:04:12;;;;;;;;;;;;;;;21.28;100.00;95374.59;10473382;28;1989;-77
2023/07/14 22:09:15;;;;;;;;;;;;;;;21.22;100.00;95376.00;10468526;28;1886;-76
2023/07/14 22:14:18;;;;;;;;;;;;;;;21.13;100.00;95369.91;10472877;28;1881;-78
2023/07/14 22:19:20;;;;;;;;;;;;;;;21.54;100.00;95372.16;10459469;28;1901;-73
2023/07/14 22:24:24;;;;;;;;;;;;;;;21.65;100.00;95371.63;10453140;28;1989;-70
2023/07/14 22:29:27;;;;;;;;;;;;;;;21.69;100.00;95370.56;10458101;28;1812;-69
2023/07/14 22:34:32;;;;;;;;;;;;;;;21.72;100.00;95371.81;10459185;28;2209;-69
2023/07/14 22:39:37;;;;;;;;;;;;;;;21.52;100.00;95379.13;10459207;28;1823;-72
2023/07/14 22:44:41;;;;;;;;;;;;;;;21.71;100.00;95367.47;10463652;28;2460;-69
2023/07/14 22:49:43;;;;;;;;;;;;;;;21.67;100.00;95372.06;10459583;28;1998;-70
2023/07/14 22:54:47;;;;;;;;;;;;;;;21.67;100.00;95363.84;10478233;28;1828;-70
2023/07/14 22:59:50;;;;;;;;;;;;;;;21.62;100.00;95378.59;10463074;28;1899;-69
2023/07/14 23:04:53;;;;;;;;;;;;;;;21.56;100.00;95374.53;10468779;28;1930;-69
2023/07/14 23:09:56;;;;;;;;;;;;;;;21.45;100.00;95368.81;10461771;28;1895;-70
2023/07/14 23:14:58;;;;;;;;;;;;;;;21.71;100.00;95364.75;10450458;28;2086;-70
2023/07/14 23:20:03;;;;;;;;;;;;;;;21.65;100.00;95360.69;10471920;28;1925;-73
2023/07/14 23:25:07;;;;;;;;;;;;;;;21.61;100.00;95365.28;10466252;28;2091;-73
2023/07/14 23:30:10;;;;;;;;;;;;;;;21.49;100.00;95371.63;10475190;28;2222;-70
2023/07/14 23:35:13;;;;;;;;;;;;;;;21.47;100.00;95371.97;10466106;28;2171;-70
2023/07/14 23:40:19;;;;;;;;;;;;;;;21.45;100.00;95374.28;10455436;28;5177;-71
2023/07/14 23:45:22;;;;;;;;;;;;;;;21.41;100.00;95378.06;10472817;28;2507;-70
2023/07/14 23:50:25;;;;;;;;;;;;;;;21.34;100.00;95378.69;10477924;28;1882;-71
2023/07/14 23:55:31;;;;;;;;;;;;;;;21.23;100.00;95377.59;10456650;28;2200;-71
